^^
Station Historical Data
 
Daily Summary for April 21, 2014 Units:  English    Metric   Both
« Previous Day
Next Day »
Daily Weekly Monthly Yearly Custom
  Current: High: Low: Average:
Temperature: 58.5 °F 64.7 °F 54.7 °F 59.6 °F
Dew Point: 48.7 °F 48.7 °F 46.2 °F 47.5 °F
Humidity: 70% 74% 54% 65%
Wind Speed: 1.0mph 3.0mph 0.0mph 1.4mph
Wind Gust: 5.0mph 10.0mph - -
WindSouth - - South
Pressure: 29.93 in 30.00 in 29.93 in -
Precipitation: 0.00 in      
Historical Graphs
 
 
Tabular Data for April 21, 2014
Time Temperature Dew Point Pressure Wind Wind Speed Wind Gust Humidity Rainfall Rate (Hourly)
00:09 64.5 °F 47.5 °F 30.00 in Calm   5.0 mph 54% 0.00 in
00:19 64.6 °F 48.0 °F 30.00 in Calm   7.0 mph 55% 0.00 in
00:29 64.7 °F 48.2 °F 30.00 in Calm   10.0 mph 55% 0.00 in
00:39 64.7 °F 48.1 °F 30.00 in SSW 3.0 mph 8.0 mph 55% 0.00 in
00:49 64.5 °F 48.4 °F 30.00 in South 1.0 mph 6.0 mph 56% 0.00 in
00:59 64.4 °F 48.4 °F 30.00 in South 1.0 mph 8.0 mph 56% 0.00 in
01:09 64.3 °F 48.3 °F 29.99 in SSW 1.0 mph 5.0 mph 56% 0.00 in
01:19 64.0 °F 48.5 °F 29.99 in Calm   6.0 mph 57% 0.00 in
01:29 63.8 °F 48.2 °F 29.99 in South 1.0 mph 5.0 mph 57% 0.00 in
01:39 63.5 °F 48.5 °F 29.99 in Calm   4.0 mph 58% 0.00 in
01:49 63.2 °F 48.6 °F 29.99 in Calm   2.0 mph 59% 0.00 in
01:59 62.8 °F 48.3 °F 29.98 in South 2.0 mph 5.0 mph 59% 0.00 in
02:09 62.5 °F 48.4 °F 29.98 in South 1.0 mph 4.0 mph 60% 0.00 in
02:19 62.2 °F 48.1 °F 29.98 in Calm   10.0 mph 60% 0.00 in
02:29 62.0 °F 47.9 °F 29.98 in Calm   5.0 mph 60% 0.00 in
02:39 61.8 °F 48.2 °F 29.98 in Calm   4.0 mph 61% 0.00 in
02:49 61.6 °F 48.0 °F 29.98 in South 2.0 mph 5.0 mph 61% 0.00 in
02:59 61.4 °F 47.8 °F 29.97 in Calm   3.0 mph 61% 0.00 in
03:09 61.2 °F 47.6 °F 29.97 in South 1.0 mph 4.0 mph 61% 0.00 in
03:19 60.8 °F 47.7 °F 29.97 in Calm   5.0 mph 62% 0.00 in
03:29 60.4 °F 47.3 °F 29.97 in Calm   1.0 mph 62% 0.00 in
03:39 59.9 °F 47.3 °F 29.97 in Calm   3.0 mph 63% 0.00 in
03:49 59.4 °F 47.2 °F 29.97 in Calm   3.0 mph 64% 0.00 in
03:59 59.0 °F 47.2 °F 29.97 in Calm     65% 0.00 in
04:09 58.3 °F 47.0 °F 29.96 in Calm     66% 0.00 in
04:19 57.9 °F 47.0 °F 29.96 in Calm     67% 0.00 in
04:29 57.7 °F 47.2 °F 29.96 in Calm     68% 0.00 in
04:39 57.4 °F 47.0 °F 29.96 in Calm     68% 0.00 in
04:49 57.0 °F 46.9 °F 29.95 in Calm     69% 0.00 in
04:59 56.6 °F 46.9 °F 29.95 in Calm   1.0 mph 70% 0.00 in
05:09 56.4 °F 47.1 °F 29.95 in Calm     71% 0.00 in
05:19 56.3 °F 47.0 °F 29.95 in Calm     71% 0.00 in
05:29 56.1 °F 46.8 °F 29.95 in Calm     71% 0.00 in
05:39 55.8 °F 46.5 °F 29.95 in Calm     71% 0.00 in
05:49 55.6 °F 46.7 °F 29.94 in Calm     72% 0.00 in
05:59 55.3 °F 46.4 °F 29.94 in Calm     72% 0.00 in
06:09 54.9 °F 46.4 °F 29.94 in Calm   1.0 mph 73% 0.00 in
06:19 54.7 °F 46.2 °F 29.93 in Calm     73% 0.00 in
06:29 54.9 °F 46.4 °F 29.93 in Calm     73% 0.00 in
06:39 55.1 °F 47.0 °F 29.93 in Calm     74% 0.00 in
06:49 55.6 °F 47.0 °F 29.93 in SSE 1.0 mph 4.0 mph 73% 0.00 in
07:01 56.1 °F 47.6 °F 29.93 in Calm   3.0 mph 73% 0.00 in
07:09 56.5 °F 47.6 °F 29.93 in Calm   2.0 mph 72% 0.00 in
07:19 56.9 °F 47.6 °F 29.93 in Calm   2.0 mph 71% 0.00 in
07:29 57.5 °F 48.2 °F 29.93 in Calm   3.0 mph 71% 0.00 in
07:39 58.5 °F 48.7 °F 29.93 in South 1.0 mph 5.0 mph 70% 0.00 in
jolietwx - Weather
Compliments of Weather Underground